createdAt,value
2022-10-09T00:02:23.183Z,7.46
2022-10-09T00:04:49.386Z,7.30
2022-10-09T00:07:15.534Z,7.25
2022-10-09T00:09:41.699Z,7.18
2022-10-09T00:12:07.822Z,7.10
2022-10-09T00:14:33.964Z,7.02
2022-10-09T00:17:00.169Z,6.95
2022-10-09T00:19:26.329Z,6.90
2022-10-09T00:21:52.452Z,6.83
2022-10-09T00:24:18.583Z,6.81
2022-10-09T00:26:51.850Z,6.76
2022-10-09T00:29:17.995Z,6.88
2022-10-09T00:31:44.120Z,6.78
2022-10-09T00:34:10.255Z,6.75
2022-10-09T00:36:36.378Z,6.73
2022-10-09T00:39:02.529Z,6.69
2022-10-09T00:41:28.677Z,6.70
2022-10-09T00:43:54.810Z,6.74
2022-10-09T00:46:21.065Z,6.65
2022-10-09T00:48:47.233Z,6.65
2022-10-09T00:51:13.356Z,6.63
2022-10-09T00:53:39.504Z,6.62
2022-10-09T00:56:05.665Z,6.58
2022-10-09T00:58:31.799Z,6.58
2022-10-09T01:00:57.968Z,6.49
2022-10-09T01:03:24.117Z,6.51
2022-10-09T01:05:50.275Z,6.52
2022-10-09T01:08:16.416Z,6.53
2022-10-09T01:10:42.557Z,6.55
2022-10-09T01:13:08.669Z,6.45
2022-10-09T01:15:34.838Z,6.47
2022-10-09T01:18:01.004Z,6.44
2022-10-09T01:20:27.130Z,6.46
2022-10-09T01:22:53.268Z,6.36
2022-10-09T01:25:19.419Z,6.30
2022-10-09T01:27:45.552Z,6.29
2022-10-09T01:30:11.671Z,6.25
2022-10-09T01:32:37.796Z,6.26
2022-10-09T01:35:03.953Z,6.27
2022-10-09T01:37:30.098Z,6.17
2022-10-09T01:39:56.218Z,6.18
2022-10-09T01:42:22.359Z,6.16
2022-10-09T01:44:48.476Z,6.11
2022-10-09T01:47:14.604Z,6.08
2022-10-09T01:49:40.733Z,6.09
2022-10-09T01:52:06.853Z,6.10
2022-10-09T01:54:33.008Z,6.06
2022-10-09T01:56:59.111Z,6.10
2022-10-09T01:59:25.245Z,6.12
2022-10-09T02:01:51.454Z,6.19
2022-10-09T02:04:17.713Z,6.19
2022-10-09T02:06:43.831Z,6.22
2022-10-09T02:09:10.742Z,6.19
2022-10-09T02:11:36.893Z,6.18
2022-10-09T02:14:03.019Z,6.14
2022-10-09T02:16:36.798Z,6.18
2022-10-09T02:19:03.394Z,6.25
2022-10-09T02:21:29.521Z,6.24
2022-10-09T02:23:55.671Z,6.20
2022-10-09T02:26:23.612Z,6.09
2022-10-09T02:28:49.808Z,6.11
2022-10-09T02:31:16.034Z,5.98
2022-10-09T02:36:28.030Z,6.03
2022-10-09T02:39:02.054Z,5.87
2022-10-09T02:41:34.056Z,5.84
2022-10-09T02:44:04.034Z,5.77
2022-10-09T02:46:30.577Z,5.77
2022-10-09T02:49:14.747Z,5.80
2022-10-09T02:54:28.386Z,5.78
2022-10-09T02:59:39.522Z,5.69
2022-10-09T03:02:06.131Z,5.70
2022-10-09T03:07:19.016Z,5.66
2022-10-09T03:09:47.539Z,5.73
2022-10-09T03:15:02.619Z,5.71
2022-10-09T03:17:28.734Z,5.69
2022-10-09T03:19:54.835Z,5.76
2022-10-09T03:22:20.961Z,5.82
2022-10-09T03:24:47.098Z,5.87
2022-10-09T03:27:13.246Z,5.87
2022-10-09T03:29:39.404Z,5.86
2022-10-09T03:32:05.581Z,5.90
2022-10-09T03:34:31.728Z,5.91
2022-10-09T03:36:57.896Z,5.96
2022-10-09T03:39:24.039Z,5.94
2022-10-09T03:41:50.146Z,5.95
2022-10-09T03:44:16.281Z,5.96
2022-10-09T03:46:42.466Z,5.98
2022-10-09T03:49:08.643Z,6.00
2022-10-09T03:51:34.773Z,6.01
2022-10-09T03:54:00.909Z,5.81
2022-10-09T03:56:27.019Z,5.59
2022-10-09T03:58:53.179Z,5.48
2022-10-09T04:01:19.364Z,5.37
2022-10-09T04:03:45.534Z,5.40
2022-10-09T04:06:11.675Z,5.38
2022-10-09T04:08:37.798Z,5.31
2022-10-09T04:11:03.979Z,5.31
2022-10-09T04:13:30.087Z,5.21
2022-10-09T04:15:56.341Z,5.22
2022-10-09T04:18:22.568Z,5.24
2022-10-09T04:20:48.701Z,5.21
2022-10-09T04:23:14.885Z,5.23
2022-10-09T04:25:41.012Z,5.29
2022-10-09T04:28:07.194Z,5.25
2022-10-09T04:30:33.400Z,5.27
2022-10-09T04:32:59.506Z,5.30
2022-10-09T04:35:25.638Z,5.23
2022-10-09T04:37:51.775Z,5.16
2022-10-09T04:40:17.906Z,5.11
2022-10-09T04:42:44.043Z,5.07
2022-10-09T04:45:10.226Z,5.02
2022-10-09T04:47:36.365Z,4.92
2022-10-09T04:50:02.464Z,4.80
2022-10-09T04:52:28.601Z,4.75
2022-10-09T04:54:54.733Z,4.83
2022-10-09T04:57:20.853Z,4.74
2022-10-09T04:59:47.001Z,4.74
2022-10-09T05:02:13.158Z,4.71
2022-10-09T05:04:39.349Z,4.70
2022-10-09T05:07:05.470Z,4.70
2022-10-09T05:09:31.620Z,4.77
2022-10-09T05:11:57.787Z,4.66
2022-10-09T05:14:23.925Z,4.64
2022-10-09T05:17:12.388Z,4.63
2022-10-09T05:19:37.714Z,4.61
2022-10-09T05:22:03.867Z,4.64
2022-10-09T05:24:30.029Z,4.58
2022-10-09T05:26:56.167Z,4.54
2022-10-09T05:29:22.286Z,4.52
2022-10-09T05:31:49.692Z,4.51
2022-10-09T05:34:15.998Z,4.55
2022-10-09T05:36:42.123Z,4.47
2022-10-09T05:39:08.262Z,4.45
2022-10-09T05:41:34.422Z,4.47
2022-10-09T05:44:00.549Z,4.44
2022-10-09T05:46:26.704Z,4.38
2022-10-09T05:48:52.854Z,4.39
2022-10-09T05:51:18.997Z,4.40
2022-10-09T05:53:48.583Z,4.45
2022-10-09T05:56:14.727Z,4.49
2022-10-09T05:58:40.825Z,4.49
2022-10-09T06:01:07.027Z,4.58
2022-10-09T06:03:33.207Z,4.59
2022-10-09T06:05:59.343Z,4.61
2022-10-09T06:08:25.475Z,4.70
2022-10-09T06:10:51.622Z,4.71
2022-10-09T06:13:20.937Z,4.84
2022-10-09T06:15:47.122Z,4.89
2022-10-09T06:18:13.254Z,5.02
2022-10-09T06:20:39.393Z,5.15
2022-10-09T06:23:05.498Z,5.27
2022-10-09T06:25:31.648Z,5.42
2022-10-09T06:27:57.746Z,5.64
2022-10-09T06:30:24.866Z,5.86
2022-10-09T06:32:51.810Z,6.18
2022-10-09T06:35:18.197Z,6.43
2022-10-09T06:37:44.320Z,6.79
2022-10-09T06:40:10.498Z,7.05
2022-10-09T06:42:36.653Z,7.34
2022-10-09T06:45:02.759Z,7.56
2022-10-09T06:47:28.887Z,7.76
2022-10-09T06:49:55.010Z,7.97
2022-10-09T06:55:09.851Z,7.92
2022-10-09T06:57:35.972Z,7.92
2022-10-09T07:00:02.141Z,7.85
2022-10-09T07:02:28.346Z,7.78
2022-10-09T07:04:54.901Z,7.73
2022-10-09T07:07:24.047Z,7.76
2022-10-09T07:09:51.711Z,7.84
2022-10-09T07:12:17.841Z,7.95
2022-10-09T07:14:43.995Z,8.05
2022-10-09T07:17:10.171Z,8.21
2022-10-09T07:19:36.463Z,8.46
2022-10-09T07:22:02.640Z,8.83
2022-10-09T07:24:28.780Z,9.13
2022-10-09T07:26:54.897Z,9.52
2022-10-09T07:29:21.055Z,9.91
2022-10-09T07:31:47.174Z,10.33
2022-10-09T07:34:13.319Z,10.52
2022-10-09T07:36:39.510Z,10.72
2022-10-09T07:39:05.682Z,10.97
2022-10-09T07:41:37.946Z,11.19
2022-10-09T07:44:05.265Z,11.39
2022-10-09T07:46:34.005Z,11.63
2022-10-09T07:49:00.521Z,11.77
2022-10-09T07:51:41.909Z,11.62
2022-10-09T07:54:08.149Z,11.75
2022-10-09T07:56:34.284Z,11.68
2022-10-09T07:59:00.422Z,11.67
2022-10-09T08:01:26.574Z,11.60
2022-10-09T08:03:52.745Z,11.61
2022-10-09T08:06:18.894Z,11.56
2022-10-09T08:08:47.848Z,11.54
2022-10-09T08:11:14.015Z,11.68
2022-10-09T08:13:40.181Z,11.71
2022-10-09T08:16:06.349Z,11.84
2022-10-09T08:18:32.536Z,12.11
2022-10-09T08:20:58.687Z,12.34
2022-10-09T08:23:24.823Z,12.52
2022-10-09T08:25:50.961Z,12.60
2022-10-09T08:28:17.215Z,12.86
2022-10-09T08:30:43.430Z,13.18
2022-10-09T08:33:09.615Z,13.93
2022-10-09T08:35:35.946Z,14.71
2022-10-09T08:38:08.256Z,15.49
2022-10-09T08:40:34.936Z,15.99
2022-10-09T08:43:03.214Z,16.23
2022-10-09T08:45:30.918Z,16.63
2022-10-09T08:47:59.384Z,16.97
2022-10-09T08:50:27.819Z,17.57
2022-10-09T08:52:57.953Z,18.03
2022-10-09T08:55:33.159Z,18.28
2022-10-09T08:58:00.927Z,17.85
2022-10-09T09:00:30.020Z,17.88
2022-10-09T09:02:56.176Z,17.31
2022-10-09T09:05:22.331Z,16.79
2022-10-09T09:07:51.220Z,16.23
2022-10-09T09:10:18.843Z,16.10
2022-10-09T09:12:45.115Z,15.84
2022-10-09T09:15:11.265Z,15.49
2022-10-09T09:20:17.518Z,15.33
2022-10-09T09:22:43.765Z,15.55
2022-10-09T09:25:09.962Z,15.59
2022-10-09T09:27:36.098Z,15.63
2022-10-09T09:30:02.208Z,15.57
2022-10-09T09:32:28.373Z,15.69
2022-10-09T09:34:54.532Z,15.57
2022-10-09T09:37:20.734Z,15.66
2022-10-09T09:42:33.078Z,15.86
2022-10-09T09:44:59.197Z,15.94
2022-10-09T09:47:25.330Z,16.05
2022-10-09T09:49:51.495Z,16.10
2022-10-09T09:52:17.601Z,16.01
2022-10-09T09:54:43.712Z,15.90
2022-10-09T09:57:17.079Z,16.07
2022-10-09T09:59:45.684Z,16.33
2022-10-09T10:02:11.901Z,16.59
2022-10-09T10:04:43.083Z,16.69
2022-10-09T10:07:09.398Z,16.61
2022-10-09T10:09:35.591Z,16.54
2022-10-09T10:12:01.751Z,16.73
2022-10-09T10:14:27.870Z,16.89
2022-10-09T10:16:53.994Z,17.06
2022-10-09T10:19:20.132Z,17.13
2022-10-09T10:21:46.268Z,17.21
2022-10-09T10:24:12.420Z,17.24
2022-10-09T10:26:38.564Z,17.15
2022-10-09T10:29:05.933Z,17.25
2022-10-09T10:31:32.080Z,17.00
2022-10-09T10:33:58.232Z,17.39
2022-10-09T10:36:24.358Z,17.40
2022-10-09T10:38:50.509Z,17.60
2022-10-09T10:41:16.677Z,17.80
2022-10-09T10:43:42.819Z,17.72
2022-10-09T10:46:08.938Z,17.71
2022-10-09T10:48:35.078Z,17.72
2022-10-09T10:51:02.024Z,17.85
2022-10-09T10:53:28.176Z,17.72
2022-10-09T10:55:54.468Z,17.76
2022-10-09T11:00:51.713Z,18.00
2022-10-09T11:03:17.917Z,18.13
2022-10-09T11:05:44.134Z,18.13
2022-10-09T11:08:10.394Z,17.94
2022-10-09T11:10:36.555Z,17.95
2022-10-09T11:13:02.976Z,18.14
2022-10-09T11:15:29.275Z,18.29
2022-10-09T11:17:55.423Z,18.35
2022-10-09T11:20:21.540Z,18.41
2022-10-09T11:22:47.878Z,18.43
2022-10-09T11:25:18.096Z,18.58
2022-10-09T11:27:44.232Z,18.35
2022-10-09T11:30:12.054Z,18.47
2022-10-09T11:32:38.323Z,18.51
2022-10-09T11:35:04.645Z,18.60
2022-10-09T11:37:30.775Z,18.72
2022-10-09T11:39:56.897Z,18.81
2022-10-09T11:42:23.032Z,18.87
2022-10-09T11:44:49.140Z,18.88
2022-10-09T11:47:15.250Z,18.71
2022-10-09T11:49:41.432Z,18.70
2022-10-09T11:52:07.556Z,18.64
2022-10-09T11:54:33.692Z,18.69
2022-10-09T11:56:59.856Z,18.67
2022-10-09T11:59:26.070Z,18.63
2022-10-09T12:01:52.259Z,18.50
2022-10-09T12:04:23.850Z,18.54
2022-10-09T12:06:58.379Z,18.35
2022-10-09T12:09:24.523Z,18.49
2022-10-09T12:11:50.683Z,18.67
2022-10-09T12:14:20.169Z,18.73
2022-10-09T12:16:46.657Z,18.75
2022-10-09T12:19:12.835Z,18.73
2022-10-09T12:21:38.977Z,18.77
2022-10-09T12:24:05.138Z,18.87
2022-10-09T12:26:31.255Z,18.88
2022-10-09T12:28:57.624Z,18.78
2022-10-09T12:31:23.808Z,18.60
2022-10-09T12:33:49.989Z,18.59
2022-10-09T12:36:16.132Z,18.56
2022-10-09T12:38:42.252Z,18.69
2022-10-09T12:41:08.409Z,18.65
2022-10-09T12:43:34.545Z,18.68
2022-10-09T12:46:00.723Z,18.67
2022-10-09T12:48:26.922Z,18.73
2022-10-09T12:50:53.068Z,18.82
2022-10-09T12:53:19.214Z,18.78
2022-10-09T12:55:45.328Z,18.87
2022-10-09T12:58:11.586Z,18.87
2022-10-09T13:00:37.828Z,18.88
2022-10-09T13:03:04.216Z,18.77
2022-10-09T13:05:30.609Z,18.73
2022-10-09T13:07:56.837Z,18.72
2022-10-09T13:10:22.983Z,18.77
2022-10-09T13:12:49.444Z,18.64
2022-10-09T13:15:18.911Z,18.65
2022-10-09T13:17:45.271Z,18.58
2022-10-09T13:20:11.540Z,18.67
2022-10-09T13:22:37.669Z,18.70
2022-10-09T13:25:03.813Z,18.71
2022-10-09T13:27:29.932Z,18.72
2022-10-09T13:29:56.081Z,18.81
2022-10-09T13:32:22.245Z,18.71
2022-10-09T13:34:48.349Z,18.81
2022-10-09T13:37:14.474Z,18.89
2022-10-09T13:39:40.626Z,18.93
2022-10-09T13:42:06.829Z,18.93
2022-10-09T13:44:32.970Z,18.91
2022-10-09T13:46:59.209Z,18.95
2022-10-09T13:49:25.322Z,18.97
2022-10-09T13:51:51.461Z,18.94
2022-10-09T13:54:17.593Z,18.85
2022-10-09T13:56:43.798Z,18.86
2022-10-09T13:59:09.919Z,18.86
2022-10-09T14:01:36.095Z,18.97
2022-10-09T14:04:02.246Z,19.01
2022-10-09T14:06:28.375Z,19.00
2022-10-09T14:08:54.500Z,18.92
2022-10-09T14:11:20.667Z,18.88
2022-10-09T14:13:46.790Z,18.95
2022-10-09T14:16:12.921Z,18.94
2022-10-09T14:18:39.063Z,18.98
2022-10-09T14:21:05.205Z,19.04
2022-10-09T14:23:31.351Z,19.03
2022-10-09T14:25:57.714Z,18.99
2022-10-09T14:28:23.935Z,18.96
2022-10-09T14:30:50.101Z,18.98
2022-10-09T14:33:16.256Z,18.96
2022-10-09T14:35:42.379Z,19.01
2022-10-09T14:38:08.516Z,19.00
2022-10-09T14:40:34.633Z,19.04
2022-10-09T14:43:00.774Z,19.05
2022-10-09T14:45:26.904Z,19.08
2022-10-09T14:47:53.089Z,19.14
2022-10-09T14:52:59.360Z,19.13
2022-10-09T14:55:25.549Z,19.15
2022-10-09T14:57:52.856Z,19.09
2022-10-09T15:00:19.135Z,19.10
2022-10-09T15:02:45.316Z,19.15
2022-10-09T15:05:11.460Z,19.20
2022-10-09T15:07:37.592Z,19.25
2022-10-09T15:10:03.740Z,19.39
2022-10-09T15:20:55.225Z,19.36
2022-10-09T15:23:34.288Z,19.30
2022-10-09T15:26:06.242Z,19.56
2022-10-09T15:28:32.445Z,19.68
2022-10-09T15:30:58.660Z,19.94
2022-10-09T15:33:24.823Z,20.02
2022-10-09T15:38:35.231Z,19.81
2022-10-09T15:41:06.613Z,19.41
2022-10-09T15:49:09.331Z,18.18
2022-10-09T15:51:37.797Z,17.94
2022-10-09T15:54:06.750Z,17.77
2022-10-09T15:56:39.488Z,17.66
2022-10-09T15:59:07.262Z,17.47
2022-10-09T16:01:38.950Z,17.38
2022-10-09T16:04:12.427Z,17.32
2022-10-09T16:06:38.599Z,17.28
2022-10-09T16:09:04.731Z,17.28
2022-10-09T16:11:33.238Z,17.20
2022-10-09T16:14:23.798Z,17.22
2022-10-09T16:16:49.264Z,17.16
2022-10-09T16:21:59.410Z,17.01
2022-10-09T16:24:27.898Z,16.95
2022-10-09T16:26:54.149Z,16.85
2022-10-09T16:29:20.310Z,16.82
2022-10-09T16:32:09.450Z,16.79
2022-10-09T16:40:17.237Z,16.50
2022-10-09T16:42:43.385Z,16.40
2022-10-09T16:45:20.370Z,16.27
2022-10-09T16:47:49.582Z,16.23
2022-10-09T16:50:21.391Z,16.21
2022-10-09T16:52:50.595Z,16.14
2022-10-09T16:55:22.653Z,16.06
2022-10-09T16:57:54.057Z,15.87
2022-10-09T17:05:51.668Z,15.56
2022-10-09T17:08:50.146Z,15.48
2022-10-09T17:11:09.566Z,15.32
2022-10-09T17:13:35.716Z,15.19
2022-10-09T17:16:01.846Z,15.11
2022-10-09T17:18:28.059Z,15.01
2022-10-09T17:21:27.780Z,14.92
2022-10-09T17:23:41.234Z,14.78
2022-10-09T17:26:07.389Z,14.67
2022-10-09T17:28:33.547Z,14.58
2022-10-09T17:30:59.727Z,14.46
2022-10-09T17:33:25.879Z,14.39
2022-10-09T17:35:52.092Z,14.30
2022-10-09T17:38:18.231Z,14.20
2022-10-09T17:40:44.387Z,14.07
2022-10-09T17:43:11.836Z,13.94
2022-10-09T17:45:39.269Z,13.91
2022-10-09T17:48:05.569Z,13.84
2022-10-09T17:50:35.559Z,13.85
2022-10-09T17:53:01.797Z,13.84
2022-10-09T17:55:28.000Z,13.83
2022-10-09T17:57:54.162Z,13.86
2022-10-09T18:00:21.914Z,13.88
2022-10-09T18:02:48.233Z,13.93
2022-10-09T18:05:14.394Z,13.98
2022-10-09T18:07:40.636Z,14.00
2022-10-09T18:10:06.801Z,13.97
2022-10-09T18:12:32.928Z,13.96
2022-10-09T18:14:59.060Z,13.90
2022-10-09T18:17:25.223Z,13.99
2022-10-09T18:19:51.401Z,13.98
2022-10-09T18:22:17.572Z,14.02
2022-10-09T18:24:43.746Z,13.97
2022-10-09T18:27:09.868Z,13.96
2022-10-09T18:29:36.013Z,13.94
2022-10-09T18:32:02.179Z,13.94
2022-10-09T18:34:28.300Z,13.86
2022-10-09T18:36:54.433Z,13.78
2022-10-09T18:39:20.580Z,13.65
2022-10-09T18:41:46.770Z,13.62
2022-10-09T18:44:12.945Z,13.50
2022-10-09T18:46:39.068Z,13.46
2022-10-09T18:49:05.235Z,13.46
2022-10-09T18:51:31.360Z,13.48
2022-10-09T18:53:57.477Z,13.51
2022-10-09T18:56:23.615Z,13.45
2022-10-09T18:58:49.749Z,13.40
2022-10-09T19:01:15.877Z,13.37
2022-10-09T19:03:44.819Z,13.42
2022-10-09T19:06:13.725Z,13.38
2022-10-09T19:08:39.891Z,13.37
2022-10-09T19:11:06.020Z,13.39
2022-10-09T19:13:32.193Z,13.40
2022-10-09T19:15:58.326Z,13.33
2022-10-09T19:18:24.487Z,13.34
2022-10-09T19:20:50.666Z,13.38
2022-10-09T19:23:16.829Z,13.35
2022-10-09T19:25:42.955Z,13.32
2022-10-09T19:28:09.109Z,13.34
2022-10-09T19:30:35.272Z,13.36
2022-10-09T19:33:01.422Z,13.37
2022-10-09T19:35:27.548Z,13.35
2022-10-09T19:37:53.696Z,13.30
2022-10-09T19:40:19.820Z,13.31
2022-10-09T19:42:45.967Z,13.32
2022-10-09T19:45:12.100Z,13.36
2022-10-09T19:47:38.245Z,13.31
2022-10-09T19:50:04.374Z,13.27
2022-10-09T19:52:30.515Z,13.27
2022-10-09T19:54:56.696Z,13.26
2022-10-09T19:57:22.816Z,13.35
2022-10-09T19:59:48.988Z,13.36
2022-10-09T20:02:15.142Z,13.36
2022-10-09T20:04:41.267Z,13.32
2022-10-09T20:07:12.340Z,13.34
2022-10-09T20:09:38.930Z,13.33
2022-10-09T20:12:05.058Z,13.33
2022-10-09T20:14:31.191Z,13.32
2022-10-09T20:16:57.365Z,13.36
2022-10-09T20:19:23.482Z,13.35
2022-10-09T20:21:49.605Z,13.32
2022-10-09T20:24:15.773Z,13.30
2022-10-09T20:26:43.277Z,13.40
2022-10-09T20:29:09.573Z,13.35
2022-10-09T20:31:35.722Z,13.37
2022-10-09T20:34:01.984Z,13.36
2022-10-09T20:36:28.145Z,13.32
2022-10-09T20:38:54.257Z,13.29
2022-10-09T20:41:20.419Z,13.28
2022-10-09T20:43:46.569Z,13.19
2022-10-09T20:46:12.715Z,13.15
2022-10-09T20:48:38.832Z,13.06
2022-10-09T20:51:04.987Z,13.07
2022-10-09T20:53:31.104Z,13.09
2022-10-09T20:55:57.209Z,13.05
2022-10-09T20:58:23.350Z,13.06
2022-10-09T21:00:49.483Z,13.10
2022-10-09T21:03:15.630Z,13.11
2022-10-09T21:05:41.757Z,13.11
2022-10-09T21:08:07.896Z,13.11
2022-10-09T21:10:34.061Z,13.10
2022-10-09T21:13:00.184Z,13.05
2022-10-09T21:15:26.326Z,13.06
2022-10-09T21:17:52.454Z,13.01
2022-10-09T21:20:18.657Z,12.99
2022-10-09T21:22:44.807Z,13.00
2022-10-09T21:25:10.924Z,13.01
2022-10-09T21:27:37.030Z,13.02
2022-10-09T21:30:03.176Z,12.99
2022-10-09T21:32:29.303Z,13.01
2022-10-09T21:34:55.466Z,12.98
2022-10-09T21:37:22.455Z,13.00
2022-10-09T21:39:48.731Z,12.93
2022-10-09T21:42:14.851Z,12.92
2022-10-09T21:44:40.981Z,12.92
2022-10-09T21:47:07.095Z,12.92
2022-10-09T21:49:33.256Z,12.86
2022-10-09T21:51:59.399Z,12.82
2022-10-09T21:54:25.506Z,12.82
2022-10-09T21:56:51.634Z,12.73
2022-10-09T21:59:17.741Z,12.72
2022-10-09T22:01:43.932Z,12.67
2022-10-09T22:04:10.096Z,12.61
2022-10-09T22:06:36.276Z,12.61
2022-10-09T22:09:02.406Z,12.56
2022-10-09T22:11:28.539Z,12.53
2022-10-09T22:13:54.665Z,12.51
2022-10-09T22:16:20.785Z,12.53
2022-10-09T22:18:46.914Z,12.46
2022-10-09T22:21:13.027Z,12.43
2022-10-09T22:23:39.163Z,12.41
2022-10-09T22:26:05.310Z,12.38
2022-10-09T22:28:31.462Z,12.41
2022-10-09T22:30:57.623Z,12.37
2022-10-09T22:33:23.755Z,12.33
2022-10-09T22:35:49.888Z,12.30
2022-10-09T22:38:15.999Z,12.19
2022-10-09T22:40:46.463Z,12.09
2022-10-09T22:43:13.416Z,12.06
2022-10-09T22:45:39.529Z,11.97
2022-10-09T22:48:05.684Z,11.93
2022-10-09T22:50:31.840Z,11.94
2022-10-09T22:52:57.978Z,11.92
2022-10-09T22:55:24.094Z,11.89
2022-10-09T22:57:50.244Z,11.80
2022-10-09T23:00:16.350Z,11.72
2022-10-09T23:02:42.502Z,11.73
2022-10-09T23:05:08.649Z,11.72
2022-10-09T23:07:34.817Z,11.67
2022-10-09T23:10:00.939Z,11.69
2022-10-09T23:12:27.070Z,11.68
2022-10-09T23:14:53.223Z,11.67
2022-10-09T23:17:19.339Z,11.66
2022-10-09T23:19:45.446Z,11.63
2022-10-09T23:22:11.573Z,11.60
2022-10-09T23:24:48.001Z,11.55
2022-10-09T23:27:14.185Z,11.47
2022-10-09T23:29:40.295Z,11.41
2022-10-09T23:32:06.407Z,11.29
2022-10-09T23:34:32.537Z,11.22
2022-10-09T23:36:58.641Z,11.14
2022-10-09T23:39:24.787Z,11.04
2022-10-09T23:41:50.938Z,10.78
2022-10-09T23:44:21.863Z,10.82
2022-10-09T23:46:48.357Z,10.66
2022-10-09T23:49:14.506Z,10.63
2022-10-09T23:51:40.661Z,10.59
2022-10-09T23:54:06.798Z,10.50
2022-10-09T23:56:32.903Z,10.49
2022-10-09T23:58:59.032Z,10.35
